sensor_id;sensor_type;location;lat;lon;timestamp;P1;durP1;ratioP1;P2;durP2;ratioP2
12878;SDS011;20617;49.476;10.986;2022-08-24T00:00:21;2.47;;;2.00;;
12878;SDS011;20617;49.476;10.986;2022-08-24T00:02:26;5.18;;;3.30;;
12878;SDS011;20617;49.476;10.986;2022-08-24T00:04:32;3.05;;;2.20;;
12878;SDS011;20617;49.476;10.986;2022-08-24T00:06:37;3.75;;;1.77;;
12878;SDS011;20617;49.476;10.986;2022-08-24T00:08:42;4.13;;;2.15;;
12878;SDS011;20617;49.476;10.986;2022-08-24T00:10:50;3.45;;;2.22;;
12878;SDS011;20617;49.476;10.986;2022-08-24T00:12:55;3.05;;;2.33;;
12878;SDS011;20617;49.476;10.986;2022-08-24T00:15:01;2.45;;;2.25;;
12878;SDS011;20617;49.476;10.986;2022-08-24T00:17:07;3.60;;;2.40;;
12878;SDS011;20617;49.476;10.986;2022-08-24T00:19:13;2.88;;;2.35;;
12878;SDS011;20617;49.476;10.986;2022-08-24T00:21:18;2.60;;;2.00;;
12878;SDS011;20617;49.476;10.986;2022-08-24T00:23:23;3.35;;;1.92;;
12878;SDS011;20617;49.476;10.986;2022-08-24T00:27:36;3.25;;;2.33;;
12878;SDS011;20617;49.476;10.986;2022-08-24T00:29:42;2.97;;;2.30;;
12878;SDS011;20617;49.476;10.986;2022-08-24T00:31:47;2.25;;;1.83;;
12878;SDS011;20617;49.476;10.986;2022-08-24T00:33:53;4.20;;;2.20;;
12878;SDS011;20617;49.476;10.986;2022-08-24T00:35:58;4.53;;;2.38;;
12878;SDS011;20617;49.476;10.986;2022-08-24T00:38:05;2.58;;;2.28;;
12878;SDS011;20617;49.476;10.986;2022-08-24T00:40:12;2.92;;;2.20;;
12878;SDS011;20617;49.476;10.986;2022-08-24T00:42:20;3.08;;;2.30;;
12878;SDS011;20617;49.476;10.986;2022-08-24T00:44:27;2.05;;;1.85;;
12878;SDS011;20617;49.476;10.986;2022-08-24T00:46:35;4.90;;;2.17;;
12878;SDS011;20617;49.476;10.986;2022-08-24T00:48:48;2.47;;;2.10;;
12878;SDS011;20617;49.476;10.986;2022-08-24T00:51:00;3.22;;;2.10;;
12878;SDS011;20617;49.476;10.986;2022-08-24T00:53:12;2.80;;;2.20;;
12878;SDS011;20617;49.476;10.986;2022-08-24T00:55:22;2.88;;;2.35;;
12878;SDS011;20617;49.476;10.986;2022-08-24T00:57:33;3.58;;;2.70;;
12878;SDS011;20617;49.476;10.986;2022-08-24T00:59:45;3.47;;;2.80;;
12878;SDS011;20617;49.476;10.986;2022-08-24T01:01:56;4.45;;;2.50;;
12878;SDS011;20617;49.476;10.986;2022-08-24T01:04:17;4.22;;;2.10;;
12878;SDS011;20617;49.476;10.986;2022-08-24T01:06:29;3.47;;;2.50;;
12878;SDS011;20617;49.476;10.986;2022-08-24T01:08:35;4.10;;;2.65;;
12878;SDS011;20617;49.476;10.986;2022-08-24T01:10:43;5.63;;;3.72;;
12878;SDS011;20617;49.476;10.986;2022-08-24T01:12:52;4.90;;;3.85;;
12878;SDS011;20617;49.476;10.986;2022-08-24T01:15:06;4.07;;;3.67;;
12878;SDS011;20617;49.476;10.986;2022-08-24T01:17:12;4.38;;;3.60;;
12878;SDS011;20617;49.476;10.986;2022-08-24T01:19:32;4.57;;;4.10;;
12878;SDS011;20617;49.476;10.986;2022-08-24T01:21:39;3.95;;;3.42;;
12878;SDS011;20617;49.476;10.986;2022-08-24T01:23:53;4.00;;;3.30;;
12878;SDS011;20617;49.476;10.986;2022-08-24T01:25:59;6.50;;;3.72;;
12878;SDS011;20617;49.476;10.986;2022-08-24T01:28:05;4.63;;;3.20;;
12878;SDS011;20617;49.476;10.986;2022-08-24T01:30:16;3.78;;;2.83;;
12878;SDS011;20617;49.476;10.986;2022-08-24T01:32:30;4.13;;;3.27;;
12878;SDS011;20617;49.476;10.986;2022-08-24T01:34:36;4.32;;;3.42;;
12878;SDS011;20617;49.476;10.986;2022-08-24T01:36:41;3.83;;;3.38;;
12878;SDS011;20617;49.476;10.986;2022-08-24T01:38:48;6.03;;;3.08;;
12878;SDS011;20617;49.476;10.986;2022-08-24T01:40:58;4.45;;;3.38;;
12878;SDS011;20617;49.476;10.986;2022-08-24T01:43:05;4.18;;;2.85;;
12878;SDS011;20617;49.476;10.986;2022-08-24T01:45:11;4.78;;;2.95;;
12878;SDS011;20617;49.476;10.986;2022-08-24T01:47:16;5.93;;;3.75;;
12878;SDS011;20617;49.476;10.986;2022-08-24T01:49:23;2.75;;;2.47;;
12878;SDS011;20617;49.476;10.986;2022-08-24T01:51:31;4.13;;;2.80;;
12878;SDS011;20617;49.476;10.986;2022-08-24T01:53:36;3.03;;;2.67;;
12878;SDS011;20617;49.476;10.986;2022-08-24T01:55:41;2.40;;;2.20;;
12878;SDS011;20617;49.476;10.986;2022-08-24T01:57:49;5.43;;;3.22;;
12878;SDS011;20617;49.476;10.986;2022-08-24T01:59:54;3.17;;;2.30;;
12878;SDS011;20617;49.476;10.986;2022-08-24T02:02:00;4.28;;;2.58;;
12878;SDS011;20617;49.476;10.986;2022-08-24T02:04:11;3.53;;;2.35;;
12878;SDS011;20617;49.476;10.986;2022-08-24T02:06:20;3.40;;;2.78;;
12878;SDS011;20617;49.476;10.986;2022-08-24T02:08:27;3.42;;;2.70;;
12878;SDS011;20617;49.476;10.986;2022-08-24T02:10:37;4.50;;;2.70;;
12878;SDS011;20617;49.476;10.986;2022-08-24T02:12:52;3.60;;;2.65;;
12878;SDS011;20617;49.476;10.986;2022-08-24T02:15:01;3.70;;;3.30;;
12878;SDS011;20617;49.476;10.986;2022-08-24T02:17:07;3.90;;;2.65;;
12878;SDS011;20617;49.476;10.986;2022-08-24T02:19:13;3.40;;;2.85;;
12878;SDS011;20617;49.476;10.986;2022-08-24T02:21:18;3.20;;;2.78;;
12878;SDS011;20617;49.476;10.986;2022-08-24T02:23:23;5.95;;;3.15;;
12878;SDS011;20617;49.476;10.986;2022-08-24T02:25:29;6.38;;;3.30;;
12878;SDS011;20617;49.476;10.986;2022-08-24T02:27:34;4.32;;;2.95;;
12878;SDS011;20617;49.476;10.986;2022-08-24T02:29:44;5.60;;;3.85;;
12878;SDS011;20617;49.476;10.986;2022-08-24T02:31:49;4.55;;;3.03;;
12878;SDS011;20617;49.476;10.986;2022-08-24T02:33:54;3.92;;;3.30;;
12878;SDS011;20617;49.476;10.986;2022-08-24T02:35:59;3.40;;;2.88;;
12878;SDS011;20617;49.476;10.986;2022-08-24T02:38:07;5.07;;;3.97;;
12878;SDS011;20617;49.476;10.986;2022-08-24T02:40:13;4.07;;;3.22;;
12878;SDS011;20617;49.476;10.986;2022-08-24T02:42:19;4.47;;;3.67;;
12878;SDS011;20617;49.476;10.986;2022-08-24T02:44:24;3.45;;;3.05;;
12878;SDS011;20617;49.476;10.986;2022-08-24T02:46:31;3.22;;;2.92;;
12878;SDS011;20617;49.476;10.986;2022-08-24T02:48:42;5.82;;;3.65;;
12878;SDS011;20617;49.476;10.986;2022-08-24T02:51:03;3.55;;;3.08;;
12878;SDS011;20617;49.476;10.986;2022-08-24T02:53:09;4.95;;;3.55;;
12878;SDS011;20617;49.476;10.986;2022-08-24T02:55:17;3.63;;;3.00;;
12878;SDS011;20617;49.476;10.986;2022-08-24T02:57:25;5.03;;;3.97;;
12878;SDS011;20617;49.476;10.986;2022-08-24T02:59:30;5.07;;;4.05;;
12878;SDS011;20617;49.476;10.986;2022-08-24T03:01:38;4.40;;;3.42;;
12878;SDS011;20617;49.476;10.986;2022-08-24T03:03:46;5.22;;;3.70;;
12878;SDS011;20617;49.476;10.986;2022-08-24T03:05:51;5.03;;;3.60;;
12878;SDS011;20617;49.476;10.986;2022-08-24T03:07:56;4.00;;;3.53;;
12878;SDS011;20617;49.476;10.986;2022-08-24T03:10:04;4.50;;;3.40;;
12878;SDS011;20617;49.476;10.986;2022-08-24T03:12:10;5.00;;;4.00;;
12878;SDS011;20617;49.476;10.986;2022-08-24T03:14:15;5.55;;;3.80;;
12878;SDS011;20617;49.476;10.986;2022-08-24T03:16:20;6.00;;;4.25;;
12878;SDS011;20617;49.476;10.986;2022-08-24T03:18:28;3.75;;;3.35;;
12878;SDS011;20617;49.476;10.986;2022-08-24T03:20:36;4.80;;;4.30;;
12878;SDS011;20617;49.476;10.986;2022-08-24T03:24:47;4.03;;;3.63;;
12878;SDS011;20617;49.476;10.986;2022-08-24T03:26:52;3.95;;;3.65;;
12878;SDS011;20617;49.476;10.986;2022-08-24T03:29:00;6.80;;;3.53;;
12878;SDS011;20617;49.476;10.986;2022-08-24T03:31:07;4.55;;;3.90;;
12878;SDS011;20617;49.476;10.986;2022-08-24T03:33:13;6.15;;;3.35;;
12878;SDS011;20617;49.476;10.986;2022-08-24T03:35:21;6.53;;;3.90;;
12878;SDS011;20617;49.476;10.986;2022-08-24T03:37:26;6.28;;;3.47;;
12878;SDS011;20617;49.476;10.986;2022-08-24T03:39:33;5.15;;;4.05;;
12878;SDS011;20617;49.476;10.986;2022-08-24T03:41:39;5.43;;;3.75;;
12878;SDS011;20617;49.476;10.986;2022-08-24T03:43:44;6.55;;;4.20;;
12878;SDS011;20617;49.476;10.986;2022-08-24T03:45:54;6.05;;;3.72;;
12878;SDS011;20617;49.476;10.986;2022-08-24T03:47:59;6.50;;;3.78;;
12878;SDS011;20617;49.476;10.986;2022-08-24T03:50:05;5.28;;;4.25;;
12878;SDS011;20617;49.476;10.986;2022-08-24T03:52:13;3.97;;;3.58;;
12878;SDS011;20617;49.476;10.986;2022-08-24T03:54:19;5.03;;;4.20;;
12878;SDS011;20617;49.476;10.986;2022-08-24T03:56:24;5.53;;;4.28;;
12878;SDS011;20617;49.476;10.986;2022-08-24T03:58:30;6.57;;;3.90;;
12878;SDS011;20617;49.476;10.986;2022-08-24T04:00:36;4.38;;;3.95;;
12878;SDS011;20617;49.476;10.986;2022-08-24T04:02:46;4.40;;;3.95;;
12878;SDS011;20617;49.476;10.986;2022-08-24T04:04:54;6.97;;;4.00;;
12878;SDS011;20617;49.476;10.986;2022-08-24T04:06:59;4.50;;;4.10;;
12878;SDS011;20617;49.476;10.986;2022-08-24T04:09:09;6.60;;;4.22;;
12878;SDS011;20617;49.476;10.986;2022-08-24T04:11:18;5.30;;;4.25;;
12878;SDS011;20617;49.476;10.986;2022-08-24T04:13:24;6.15;;;4.45;;
12878;SDS011;20617;49.476;10.986;2022-08-24T04:15:37;4.63;;;3.95;;
12878;SDS011;20617;49.476;10.986;2022-08-24T04:17:43;4.45;;;3.75;;
12878;SDS011;20617;49.476;10.986;2022-08-24T04:19:49;5.72;;;4.28;;
12878;SDS011;20617;49.476;10.986;2022-08-24T04:22:07;5.47;;;4.45;;
12878;SDS011;20617;49.476;10.986;2022-08-24T04:24:15;5.70;;;3.90;;
12878;SDS011;20617;49.476;10.986;2022-08-24T04:26:22;5.85;;;4.72;;
12878;SDS011;20617;49.476;10.986;2022-08-24T04:28:47;8.48;;;4.60;;
12878;SDS011;20617;49.476;10.986;2022-08-24T04:30:53;6.07;;;4.60;;
12878;SDS011;20617;49.476;10.986;2022-08-24T04:33:04;9.35;;;4.97;;
12878;SDS011;20617;49.476;10.986;2022-08-24T04:35:09;6.50;;;4.88;;
12878;SDS011;20617;49.476;10.986;2022-08-24T04:39:33;5.88;;;5.20;;
12878;SDS011;20617;49.476;10.986;2022-08-24T04:42:12;5.07;;;4.10;;
12878;SDS011;20617;49.476;10.986;2022-08-24T04:44:18;5.50;;;4.40;;
12878;SDS011;20617;49.476;10.986;2022-08-24T04:46:23;5.40;;;4.40;;
12878;SDS011;20617;49.476;10.986;2022-08-24T04:48:29;5.43;;;4.20;;
12878;SDS011;20617;49.476;10.986;2022-08-24T04:52:39;6.43;;;4.55;;
12878;SDS011;20617;49.476;10.986;2022-08-24T04:54:53;6.13;;;4.13;;
12878;SDS011;20617;49.476;10.986;2022-08-24T04:57:00;5.38;;;4.75;;
12878;SDS011;20617;49.476;10.986;2022-08-24T04:59:05;6.72;;;4.45;;
12878;SDS011;20617;49.476;10.986;2022-08-24T05:01:12;6.57;;;4.43;;
12878;SDS011;20617;49.476;10.986;2022-08-24T05:03:21;7.43;;;4.75;;
12878;SDS011;20617;49.476;10.986;2022-08-24T05:05:27;7.35;;;5.30;;
12878;SDS011;20617;49.476;10.986;2022-08-24T05:07:31;6.57;;;5.10;;
12878;SDS011;20617;49.476;10.986;2022-08-24T05:09:36;7.38;;;4.82;;
12878;SDS011;20617;49.476;10.986;2022-08-24T05:11:45;6.13;;;4.75;;
12878;SDS011;20617;49.476;10.986;2022-08-24T05:13:56;6.05;;;4.70;;
12878;SDS011;20617;49.476;10.986;2022-08-24T05:16:04;6.32;;;4.90;;
12878;SDS011;20617;49.476;10.986;2022-08-24T05:18:11;6.25;;;4.57;;
12878;SDS011;20617;49.476;10.986;2022-08-24T05:20:16;5.55;;;4.82;;
12878;SDS011;20617;49.476;10.986;2022-08-24T05:22:24;5.75;;;5.03;;
12878;SDS011;20617;49.476;10.986;2022-08-24T05:24:30;5.13;;;4.63;;
12878;SDS011;20617;49.476;10.986;2022-08-24T05:26:35;5.28;;;4.78;;
12878;SDS011;20617;49.476;10.986;2022-08-24T05:28:45;8.13;;;4.95;;
12878;SDS011;20617;49.476;10.986;2022-08-24T05:30:51;5.28;;;4.32;;
12878;SDS011;20617;49.476;10.986;2022-08-24T05:32:55;6.28;;;4.85;;
12878;SDS011;20617;49.476;10.986;2022-08-24T05:35:02;5.78;;;4.65;;
12878;SDS011;20617;49.476;10.986;2022-08-24T05:37:07;7.32;;;5.97;;
12878;SDS011;20617;49.476;10.986;2022-08-24T05:39:31;7.15;;;5.20;;
12878;SDS011;20617;49.476;10.986;2022-08-24T05:41:41;8.00;;;5.13;;
12878;SDS011;20617;49.476;10.986;2022-08-24T05:44:00;9.43;;;6.38;;
12878;SDS011;20617;49.476;10.986;2022-08-24T05:46:07;5.68;;;5.18;;
12878;SDS011;20617;49.476;10.986;2022-08-24T05:48:12;6.72;;;5.45;;
12878;SDS011;20617;49.476;10.986;2022-08-24T05:50:32;9.13;;;5.60;;
12878;SDS011;20617;49.476;10.986;2022-08-24T05:52:38;5.75;;;5.00;;
12878;SDS011;20617;49.476;10.986;2022-08-24T05:54:42;7.82;;;5.28;;
12878;SDS011;20617;49.476;10.986;2022-08-24T05:56:49;5.30;;;4.78;;
12878;SDS011;20617;49.476;10.986;2022-08-24T05:58:56;6.47;;;5.55;;
12878;SDS011;20617;49.476;10.986;2022-08-24T06:01:07;7.25;;;5.45;;
12878;SDS011;20617;49.476;10.986;2022-08-24T06:03:15;7.63;;;5.20;;
12878;SDS011;20617;49.476;10.986;2022-08-24T06:05:25;7.63;;;6.05;;
12878;SDS011;20617;49.476;10.986;2022-08-24T06:07:30;7.00;;;5.95;;
12878;SDS011;20617;49.476;10.986;2022-08-24T06:09:36;5.90;;;4.93;;
12878;SDS011;20617;49.476;10.986;2022-08-24T06:11:43;6.70;;;6.00;;
12878;SDS011;20617;49.476;10.986;2022-08-24T06:13:50;5.78;;;5.05;;
12878;SDS011;20617;49.476;10.986;2022-08-24T06:16:01;7.53;;;5.53;;
12878;SDS011;20617;49.476;10.986;2022-08-24T06:18:25;6.15;;;5.55;;
12878;SDS011;20617;49.476;10.986;2022-08-24T06:20:30;7.07;;;5.43;;
12878;SDS011;20617;49.476;10.986;2022-08-24T06:22:36;8.10;;;5.53;;
12878;SDS011;20617;49.476;10.986;2022-08-24T06:24:41;10.07;;;5.68;;
12878;SDS011;20617;49.476;10.986;2022-08-24T06:27:00;8.43;;;5.50;;
12878;SDS011;20617;49.476;10.986;2022-08-24T06:29:18;5.60;;;4.97;;
12878;SDS011;20617;49.476;10.986;2022-08-24T06:31:29;6.72;;;5.38;;
12878;SDS011;20617;49.476;10.986;2022-08-24T06:33:46;5.25;;;4.75;;
12878;SDS011;20617;49.476;10.986;2022-08-24T06:35:52;7.15;;;6.22;;
12878;SDS011;20617;49.476;10.986;2022-08-24T06:37:57;5.75;;;5.22;;
12878;SDS011;20617;49.476;10.986;2022-08-24T06:40:03;5.13;;;4.18;;
12878;SDS011;20617;49.476;10.986;2022-08-24T06:42:10;5.45;;;4.65;;
12878;SDS011;20617;49.476;10.986;2022-08-24T06:44:17;8.88;;;6.18;;
12878;SDS011;20617;49.476;10.986;2022-08-24T06:46:29;8.18;;;5.72;;
12878;SDS011;20617;49.476;10.986;2022-08-24T06:50:42;6.43;;;5.20;;
12878;SDS011;20617;49.476;10.986;2022-08-24T06:52:47;6.57;;;4.75;;
12878;SDS011;20617;49.476;10.986;2022-08-24T06:54:52;6.82;;;5.03;;
12878;SDS011;20617;49.476;10.986;2022-08-24T06:56:58;5.90;;;4.60;;
12878;SDS011;20617;49.476;10.986;2022-08-24T07:01:08;8.27;;;4.72;;
12878;SDS011;20617;49.476;10.986;2022-08-24T07:03:15;5.88;;;4.65;;
12878;SDS011;20617;49.476;10.986;2022-08-24T07:05:28;8.23;;;5.35;;
12878;SDS011;20617;49.476;10.986;2022-08-24T07:07:55;8.18;;;5.25;;
12878;SDS011;20617;49.476;10.986;2022-08-24T07:10:00;9.05;;;5.18;;
12878;SDS011;20617;49.476;10.986;2022-08-24T07:14:11;4.47;;;3.88;;
12878;SDS011;20617;49.476;10.986;2022-08-24T07:16:16;4.57;;;3.50;;
12878;SDS011;20617;49.476;10.986;2022-08-24T07:18:27;4.88;;;3.90;;
12878;SDS011;20617;49.476;10.986;2022-08-24T07:20:32;5.00;;;4.10;;
12878;SDS011;20617;49.476;10.986;2022-08-24T07:22:42;6.43;;;4.95;;
12878;SDS011;20617;49.476;10.986;2022-08-24T07:24:50;5.47;;;4.82;;
12878;SDS011;20617;49.476;10.986;2022-08-24T07:26:55;5.18;;;4.22;;
12878;SDS011;20617;49.476;10.986;2022-08-24T07:31:36;5.03;;;3.60;;
12878;SDS011;20617;49.476;10.986;2022-08-24T07:33:58;6.20;;;4.25;;
12878;SDS011;20617;49.476;10.986;2022-08-24T07:36:04;4.15;;;3.75;;
12878;SDS011;20617;49.476;10.986;2022-08-24T07:38:10;7.38;;;4.32;;
12878;SDS011;20617;49.476;10.986;2022-08-24T07:40:19;5.72;;;4.43;;
12878;SDS011;20617;49.476;10.986;2022-08-24T07:42:24;5.47;;;4.38;;
12878;SDS011;20617;49.476;10.986;2022-08-24T07:44:34;4.72;;;3.80;;
12878;SDS011;20617;49.476;10.986;2022-08-24T07:48:46;4.47;;;3.60;;
12878;SDS011;20617;49.476;10.986;2022-08-24T07:51:12;5.53;;;4.50;;
12878;SDS011;20617;49.476;10.986;2022-08-24T07:53:20;10.27;;;4.32;;
12878;SDS011;20617;49.476;10.986;2022-08-24T07:55:53;7.68;;;4.80;;
12878;SDS011;20617;49.476;10.986;2022-08-24T07:57:59;4.68;;;3.67;;
12878;SDS011;20617;49.476;10.986;2022-08-24T08:00:04;5.85;;;3.83;;
12878;SDS011;20617;49.476;10.986;2022-08-24T08:02:17;4.47;;;3.65;;
12878;SDS011;20617;49.476;10.986;2022-08-24T08:04:26;4.60;;;3.40;;
12878;SDS011;20617;49.476;10.986;2022-08-24T08:06:33;4.45;;;3.97;;
12878;SDS011;20617;49.476;10.986;2022-08-24T08:10:44;5.95;;;3.78;;
12878;SDS011;20617;49.476;10.986;2022-08-24T08:12:51;5.10;;;3.95;;
12878;SDS011;20617;49.476;10.986;2022-08-24T08:14:56;5.18;;;3.40;;
12878;SDS011;20617;49.476;10.986;2022-08-24T08:17:01;5.47;;;3.00;;
12878;SDS011;20617;49.476;10.986;2022-08-24T08:19:07;4.25;;;3.60;;
12878;SDS011;20617;49.476;10.986;2022-08-24T08:21:16;4.28;;;3.63;;
12878;SDS011;20617;49.476;10.986;2022-08-24T08:23:35;3.78;;;3.42;;
12878;SDS011;20617;49.476;10.986;2022-08-24T08:25:59;3.80;;;3.38;;
12878;SDS011;20617;49.476;10.986;2022-08-24T08:28:20;3.58;;;3.22;;
12878;SDS011;20617;49.476;10.986;2022-08-24T08:30:27;4.40;;;3.72;;
12878;SDS011;20617;49.476;10.986;2022-08-24T08:32:32;4.32;;;3.70;;
12878;SDS011;20617;49.476;10.986;2022-08-24T08:34:37;3.85;;;3.20;;
12878;SDS011;20617;49.476;10.986;2022-08-24T08:36:42;4.35;;;3.47;;
12878;SDS011;20617;49.476;10.986;2022-08-24T08:38:50;3.83;;;2.50;;
12878;SDS011;20617;49.476;10.986;2022-08-24T08:40:59;2.92;;;2.50;;
12878;SDS011;20617;49.476;10.986;2022-08-24T08:43:41;6.32;;;3.50;;
12878;SDS011;20617;49.476;10.986;2022-08-24T08:45:55;4.80;;;2.92;;
12878;SDS011;20617;49.476;10.986;2022-08-24T08:48:57;2.90;;;2.60;;
12878;SDS011;20617;49.476;10.986;2022-08-24T08:54:10;6.50;;;3.10;;
12878;SDS011;20617;49.476;10.986;2022-08-24T08:56:19;3.80;;;2.83;;
12878;SDS011;20617;49.476;10.986;2022-08-24T08:58:44;4.75;;;3.25;;
12878;SDS011;20617;49.476;10.986;2022-08-24T09:01:09;4.35;;;3.28;;
12878;SDS011;20617;49.476;10.986;2022-08-24T09:03:35;3.90;;;2.60;;
12878;SDS011;20617;49.476;10.986;2022-08-24T09:09:05;4.50;;;2.67;;
12878;SDS011;20617;49.476;10.986;2022-08-24T09:11:25;5.25;;;2.97;;
12878;SDS011;20617;49.476;10.986;2022-08-24T09:13:47;5.68;;;2.92;;
12878;SDS011;20617;49.476;10.986;2022-08-24T09:16:17;3.20;;;2.88;;
12878;SDS011;20617;49.476;10.986;2022-08-24T09:18:39;2.83;;;2.60;;
12878;SDS011;20617;49.476;10.986;2022-08-24T09:23:42;3.40;;;2.85;;
12878;SDS011;20617;49.476;10.986;2022-08-24T09:25:58;3.35;;;2.60;;
12878;SDS011;20617;49.476;10.986;2022-08-24T09:28:11;3.50;;;2.47;;
12878;SDS011;20617;49.476;10.986;2022-08-24T09:30:22;3.08;;;2.20;;
12878;SDS011;20617;49.476;10.986;2022-08-24T09:32:34;3.38;;;2.35;;
12878;SDS011;20617;49.476;10.986;2022-08-24T09:34:57;5.35;;;2.85;;
12878;SDS011;20617;49.476;10.986;2022-08-24T09:37:14;4.70;;;3.03;;
12878;SDS011;20617;49.476;10.986;2022-08-24T09:39:41;3.10;;;2.80;;
12878;SDS011;20617;49.476;10.986;2022-08-24T09:42:07;3.30;;;2.53;;
12878;SDS011;20617;49.476;10.986;2022-08-24T09:44:40;3.40;;;2.47;;
12878;SDS011;20617;49.476;10.986;2022-08-24T09:47:07;4.22;;;3.15;;
12878;SDS011;20617;49.476;10.986;2022-08-24T09:49:34;4.78;;;2.70;;
12878;SDS011;20617;49.476;10.986;2022-08-24T09:54:34;2.47;;;2.03;;
12878;SDS011;20617;49.476;10.986;2022-08-24T09:56:57;2.53;;;2.08;;
12878;SDS011;20617;49.476;10.986;2022-08-24T09:59:25;2.17;;;1.95;;
12878;SDS011;20617;49.476;10.986;2022-08-24T10:01:47;2.55;;;2.28;;
12878;SDS011;20617;49.476;10.986;2022-08-24T10:04:09;3.47;;;2.40;;
12878;SDS011;20617;49.476;10.986;2022-08-24T10:06:23;2.53;;;1.95;;
12878;SDS011;20617;49.476;10.986;2022-08-24T10:11:08;3.03;;;2.10;;
12878;SDS011;20617;49.476;10.986;2022-08-24T10:13:24;4.78;;;1.98;;
12878;SDS011;20617;49.476;10.986;2022-08-24T10:15:37;2.95;;;2.10;;
12878;SDS011;20617;49.476;10.986;2022-08-24T10:17:56;2.75;;;2.05;;
12878;SDS011;20617;49.476;10.986;2022-08-24T10:20:19;2.17;;;1.90;;
12878;SDS011;20617;49.476;10.986;2022-08-24T10:22:31;2.10;;;1.77;;
12878;SDS011;20617;49.476;10.986;2022-08-24T10:24:59;2.58;;;1.80;;
12878;SDS011;20617;49.476;10.986;2022-08-24T10:27:36;3.30;;;2.40;;
12878;SDS011;20617;49.476;10.986;2022-08-24T10:32:33;3.28;;;1.92;;
12878;SDS011;20617;49.476;10.986;2022-08-24T10:34:53;2.90;;;2.30;;
12878;SDS011;20617;49.476;10.986;2022-08-24T10:37:24;2.40;;;1.88;;
12878;SDS011;20617;49.476;10.986;2022-08-24T10:40:20;3.67;;;2.45;;
12878;SDS011;20617;49.476;10.986;2022-08-24T10:42:55;3.72;;;2.47;;
12878;SDS011;20617;49.476;10.986;2022-08-24T10:45:38;3.05;;;2.50;;
12878;SDS011;20617;49.476;10.986;2022-08-24T10:48:03;3.42;;;2.30;;
12878;SDS011;20617;49.476;10.986;2022-08-24T10:50:26;3.92;;;2.03;;
12878;SDS011;20617;49.476;10.986;2022-08-24T10:52:50;2.17;;;1.90;;
12878;SDS011;20617;49.476;10.986;2022-08-24T10:55:18;4.03;;;2.63;;
12878;SDS011;20617;49.476;10.986;2022-08-24T10:57:28;2.25;;;1.60;;
12878;SDS011;20617;49.476;10.986;2022-08-24T10:59:40;3.22;;;2.08;;
12878;SDS011;20617;49.476;10.986;2022-08-24T11:02:04;2.42;;;2.22;;
12878;SDS011;20617;49.476;10.986;2022-08-24T11:04:22;2.65;;;1.90;;
12878;SDS011;20617;49.476;10.986;2022-08-24T11:06:32;4.00;;;2.45;;
12878;SDS011;20617;49.476;10.986;2022-08-24T11:08:41;2.40;;;1.85;;
12878;SDS011;20617;49.476;10.986;2022-08-24T11:11:03;2.45;;;2.25;;
12878;SDS011;20617;49.476;10.986;2022-08-24T11:13:18;2.53;;;2.20;;
12878;SDS011;20617;49.476;10.986;2022-08-24T11:15:26;2.22;;;2.03;;
12878;SDS011;20617;49.476;10.986;2022-08-24T11:17:31;3.08;;;2.22;;
12878;SDS011;20617;49.476;10.986;2022-08-24T11:19:37;2.70;;;1.92;;
12878;SDS011;20617;49.476;10.986;2022-08-24T11:21:45;3.85;;;2.55;;
12878;SDS011;20617;49.476;10.986;2022-08-24T11:23:55;2.97;;;1.88;;
12878;SDS011;20617;49.476;10.986;2022-08-24T11:26:07;1.77;;;1.67;;
12878;SDS011;20617;49.476;10.986;2022-08-24T11:28:17;1.65;;;1.50;;
12878;SDS011;20617;49.476;10.986;2022-08-24T11:30:27;3.60;;;1.95;;
12878;SDS011;20617;49.476;10.986;2022-08-24T11:32:36;2.30;;;1.92;;
12878;SDS011;20617;49.476;10.986;2022-08-24T11:34:43;3.15;;;1.77;;
12878;SDS011;20617;49.476;10.986;2022-08-24T11:36:50;2.90;;;2.35;;
12878;SDS011;20617;49.476;10.986;2022-08-24T11:41:25;2.28;;;2.00;;
12878;SDS011;20617;49.476;10.986;2022-08-24T11:43:39;1.98;;;1.67;;
12878;SDS011;20617;49.476;10.986;2022-08-24T11:46:00;2.10;;;1.90;;
12878;SDS011;20617;49.476;10.986;2022-08-24T11:48:15;3.50;;;2.28;;
12878;SDS011;20617;49.476;10.986;2022-08-24T11:50:32;3.33;;;1.70;;
12878;SDS011;20617;49.476;10.986;2022-08-24T11:52:44;1.95;;;1.58;;
12878;SDS011;20617;49.476;10.986;2022-08-24T11:55:01;2.38;;;1.80;;
12878;SDS011;20617;49.476;10.986;2022-08-24T11:57:13;1.67;;;1.58;;
12878;SDS011;20617;49.476;10.986;2022-08-24T11:59:24;2.00;;;1.80;;
12878;SDS011;20617;49.476;10.986;2022-08-24T12:01:42;2.38;;;1.88;;
12878;SDS011;20617;49.476;10.986;2022-08-24T12:03:57;2.35;;;1.70;;
12878;SDS011;20617;49.476;10.986;2022-08-24T12:06:25;2.55;;;2.10;;
12878;SDS011;20617;49.476;10.986;2022-08-24T12:08:38;2.45;;;2.25;;
12878;SDS011;20617;49.476;10.986;2022-08-24T12:10:53;2.97;;;2.15;;
12878;SDS011;20617;49.476;10.986;2022-08-24T12:13:08;2.35;;;1.80;;
12878;SDS011;20617;49.476;10.986;2022-08-24T12:15:19;2.60;;;2.05;;
12878;SDS011;20617;49.476;10.986;2022-08-24T12:17:32;2.78;;;1.83;;
12878;SDS011;20617;49.476;10.986;2022-08-24T12:19:43;3.20;;;1.67;;
12878;SDS011;20617;49.476;10.986;2022-08-24T12:21:53;5.97;;;2.30;;
12878;SDS011;20617;49.476;10.986;2022-08-24T12:24:02;1.75;;;1.40;;
12878;SDS011;20617;49.476;10.986;2022-08-24T12:26:16;2.55;;;2.03;;
12878;SDS011;20617;49.476;10.986;2022-08-24T12:28:28;2.35;;;2.15;;
12878;SDS011;20617;49.476;10.986;2022-08-24T12:30:37;3.45;;;2.20;;
12878;SDS011;20617;49.476;10.986;2022-08-24T12:32:43;2.85;;;2.35;;
12878;SDS011;20617;49.476;10.986;2022-08-24T12:34:52;3.55;;;2.47;;
12878;SDS011;20617;49.476;10.986;2022-08-24T12:37:02;2.80;;;2.40;;
12878;SDS011;20617;49.476;10.986;2022-08-24T12:39:17;3.45;;;2.30;;
12878;SDS011;20617;49.476;10.986;2022-08-24T12:41:28;3.03;;;2.45;;
12878;SDS011;20617;49.476;10.986;2022-08-24T12:43:37;3.05;;;2.10;;
12878;SDS011;20617;49.476;10.986;2022-08-24T12:45:45;4.35;;;2.75;;
12878;SDS011;20617;49.476;10.986;2022-08-24T12:47:53;2.38;;;1.90;;
12878;SDS011;20617;49.476;10.986;2022-08-24T12:50:05;3.92;;;2.67;;
12878;SDS011;20617;49.476;10.986;2022-08-24T12:52:23;2.85;;;2.30;;
12878;SDS011;20617;49.476;10.986;2022-08-24T12:57:31;3.03;;;2.42;;
12878;SDS011;20617;49.476;10.986;2022-08-24T12:59:56;4.05;;;2.70;;
12878;SDS011;20617;49.476;10.986;2022-08-24T13:02:08;3.65;;;2.00;;
12878;SDS011;20617;49.476;10.986;2022-08-24T13:04:32;5.00;;;2.85;;
12878;SDS011;20617;49.476;10.986;2022-08-24T13:06:43;5.20;;;2.55;;
12878;SDS011;20617;49.476;10.986;2022-08-24T13:09:03;5.22;;;2.83;;
12878;SDS011;20617;49.476;10.986;2022-08-24T13:11:12;4.35;;;2.83;;
12878;SDS011;20617;49.476;10.986;2022-08-24T13:16:09;5.40;;;3.00;;
12878;SDS011;20617;49.476;10.986;2022-08-24T13:20:53;2.47;;;2.10;;
12878;SDS011;20617;49.476;10.986;2022-08-24T13:23:02;2.80;;;2.17;;
12878;SDS011;20617;49.476;10.986;2022-08-24T13:25:26;2.90;;;2.35;;
12878;SDS011;20617;49.476;10.986;2022-08-24T13:27:47;3.25;;;2.05;;
12878;SDS011;20617;49.476;10.986;2022-08-24T13:30:18;3.80;;;2.50;;
12878;SDS011;20617;49.476;10.986;2022-08-24T13:32:37;3.10;;;2.80;;
12878;SDS011;20617;49.476;10.986;2022-08-24T13:34:47;3.30;;;2.35;;
12878;SDS011;20617;49.476;10.986;2022-08-24T13:37:00;2.88;;;2.53;;
12878;SDS011;20617;49.476;10.986;2022-08-24T13:41:58;2.90;;;2.47;;
12878;SDS011;20617;49.476;10.986;2022-08-24T13:44:14;5.40;;;2.35;;
12878;SDS011;20617;49.476;10.986;2022-08-24T13:46:38;3.55;;;2.83;;
12878;SDS011;20617;49.476;10.986;2022-08-24T13:48:51;3.95;;;2.58;;
12878;SDS011;20617;49.476;10.986;2022-08-24T13:53:44;2.00;;;1.90;;